Time;durP1;ratioP1;P1;durP2;ratioP2;P2;SDS_P1;SDS_P2;PMS_P1;PMS_P2;Temp;Humidity;BMP_temperature;BMP_pressure;BME280_temperature;BME280_humidity;BME280_pressure;Samples;Min_cycle;Max_cycle;Signal;HPM_P1;HPM_P2
2020/12/21 00:00:11;;;;;;;46.90;19.30;;;;;;;3.92;80.79;100358.84;1789208;77;21168;-83
2020/12/21 00:02:48;;;;;;;42.30;18.27;;;;;;;3.90;80.69;100361.80;1785091;80;21149;-82
2020/12/21 00:05:15;;;;;;;41.23;16.97;;;;;;;3.88;81.08;100357.05;1783082;80;21752;-81
2020/12/21 00:07:43;;;;;;;43.05;16.77;;;;;;;3.86;80.72;100358.72;1787803;80;21165;-82
2020/12/21 00:10:11;;;;;;;39.67;16.73;;;;;;;3.86;81.19;100367.72;1782569;77;21153;-82
2020/12/21 00:12:38;;;;;;;38.65;16.82;;;;;;;3.87;80.70;100360.05;1749865;82;21301;-82
2020/12/21 00:15:06;;;;;;;43.20;16.57;;;;;;;3.88;80.75;100363.48;1752676;79;21308;-83
2020/12/21 00:17:34;;;;;;;39.05;17.90;;;;;;;3.88;80.91;100365.66;1720412;83;21165;-81
2020/12/21 00:20:04;;;;;;;38.92;16.35;;;;;;;3.92;80.59;100362.70;1726560;81;21169;-83
2020/12/21 00:22:31;;;;;;;35.55;16.37;;;;;;;3.94;80.84;100361.93;1723232;83;21146;-84
2020/12/21 00:24:58;;;;;;;40.15;16.37;;;;;;;3.97;80.69;100361.12;1723604;83;21296;-82
2020/12/21 00:27:26;;;;;;;38.25;15.72;;;;;;;4.01;80.80;100368.50;1718650;80;21243;-82
2020/12/21 00:29:53;;;;;;;41.05;17.00;;;;;;;4.04;80.83;100365.58;1721774;81;21257;-82
2020/12/21 00:32:21;;;;;;;45.48;18.42;;;;;;;4.10;80.76;100369.95;1749074;81;21249;-83
2020/12/21 00:34:49;;;;;;;40.90;17.23;;;;;;;4.13;80.53;100368.75;1721813;83;21292;-84
2020/12/21 00:37:16;;;;;;;41.70;18.20;;;;;;;4.15;80.41;100364.08;1725044;83;21145;-83
2020/12/21 00:39:43;;;;;;;44.75;19.92;;;;;;;4.15;80.27;100364.51;1726860;83;21150;-81
2020/12/21 00:42:11;;;;;;;42.88;19.40;;;;;;;4.16;80.21;100367.55;1707629;81;21258;-83
2020/12/21 00:44:38;;;;;;;44.93;19.55;;;;;;;4.17;80.07;100366.27;1776517;81;21253;-82
2020/12/21 00:47:06;;;;;;;42.48;18.27;;;;;;;4.15;79.99;100367.94;1774201;81;21212;-82
2020/12/21 00:49:33;;;;;;;48.95;19.92;;;;;;;4.16;80.22;100376.13;1775853;81;21117;-83
2020/12/21 00:52:02;;;;;;;36.42;17.32;;;;;;;4.13;80.12;100374.76;1769201;81;21275;-82
2020/12/21 00:54:30;;;;;;;41.88;18.70;;;;;;;4.13;80.26;100371.33;1776358;81;21272;-83
2020/12/21 00:56:58;;;;;;;41.48;18.40;;;;;;;4.11;80.30;100370.42;1767186;81;21258;-83
2020/12/21 00:59:26;;;;;;;44.10;19.17;;;;;;;4.07;80.28;100364.77;1775619;81;21232;-82
2020/12/21 01:01:53;;;;;;;48.63;20.80;;;;;;;4.03;80.48;100370.26;1765204;79;21244;-82
2020/12/21 01:04:21;;;;;;;46.45;19.82;;;;;;;4.01;79.65;100369.35;1772629;81;21233;-83
2020/12/21 01:06:55;;;;;;;51.35;18.77;;;;;;;3.95;80.49;100375.66;1766749;81;21269;-83
2020/12/21 01:09:22;;;;;;;38.63;18.65;;;;;;;3.93;80.56;100376.05;1776774;81;21187;-83
2020/12/21 01:11:54;;;;;;;45.63;20.10;;;;;;;3.91;80.84;100368.70;1773991;81;21264;-82
2020/12/21 01:14:22;;;;;;;38.20;16.32;;;;;;;3.89;80.78;100381.95;1775787;78;21249;-83
2020/12/21 01:16:49;;;;;;;41.25;17.55;;;;;;;3.87;80.86;100379.77;1775474;81;21292;-84
2020/12/21 01:19:17;;;;;;;43.42;18.20;;;;;;;3.87;80.86;100369.47;1772179;81;21256;-84
2020/12/21 01:21:44;;;;;;;48.20;18.92;;;;;;;3.87;80.82;100366.48;1776780;78;21295;-81
2020/12/21 01:24:12;;;;;;;42.70;18.42;;;;;;;3.87;80.74;100366.91;1772634;78;21197;-83
2020/12/21 01:26:39;;;;;;;43.35;18.35;;;;;;;3.88;80.83;100366.05;1768206;81;21712;-83
2020/12/21 01:29:06;;;;;;;41.53;16.65;;;;;;;3.88;80.74;100368.23;1772918;78;21162;-83
2020/12/21 01:31:34;;;;;;;51.58;19.55;;;;;;;3.91;80.77;100369.99;1773171;81;21284;-83
2020/12/21 01:34:03;;;;;;;47.25;19.27;;;;;;;3.95;80.87;100362.79;1767217;81;21228;-82
2020/12/21 01:36:30;;;;;;;51.00;19.00;;;;;;;3.99;80.81;100362.02;1774439;80;21091;-83
2020/12/21 01:38:59;;;;;;;47.35;20.70;;;;;;;4.00;81.01;100361.20;1772443;81;21487;-83
2020/12/21 01:41:26;;;;;;;47.40;20.20;;;;;;;4.01;81.17;100361.63;1769833;79;21245;-82
2020/12/21 01:43:57;;;;;;;46.90;21.60;;;;;;;4.03;81.04;100362.53;1782220;80;21220;-84
2020/12/21 01:46:26;;;;;;;54.27;21.27;;;;;;;4.08;81.02;100359.66;1782929;78;21272;-84
2020/12/21 01:48:54;;;;;;;51.00;21.62;;;;;;;4.12;81.02;100358.02;1778528;80;21291;-82
2020/12/21 01:51:30;;;;;;;55.08;22.30;;;;;;;4.14;80.89;100363.64;1777444;80;21228;-84
2020/12/21 01:53:59;;;;;;;47.98;20.85;;;;;;;4.15;80.98;100366.66;1779156;80;21263;-81
2020/12/21 01:56:27;;;;;;;49.05;20.85;;;;;;;4.13;81.00;100363.17;1739199;80;21744;-82
2020/12/21 01:58:55;;;;;;;47.25;19.00;;;;;;;4.14;80.82;100358.92;1784355;78;21276;-82
2020/12/21 02:01:22;;;;;;;41.33;18.98;;;;;;;4.12;80.90;100360.59;1778890;79;21303;-83
2020/12/21 02:03:50;;;;;;;39.33;18.65;;;;;;;4.09;80.97;100355.37;1782637;80;21250;-82
2020/12/21 02:06:18;;;;;;;42.05;19.55;;;;;;;4.07;80.98;100356.62;1753730;80;21287;-83
2020/12/21 02:08:46;;;;;;;52.75;20.48;;;;;;;4.03;80.76;100357.39;1775663;80;21252;-83
2020/12/21 02:11:14;;;;;;;58.58;21.90;;;;;;;3.98;81.07;100359.02;1782450;80;21220;-83
2020/12/21 02:13:43;;;;;;;74.12;23.67;;;;;;;3.95;81.08;100355.94;1784768;79;21287;-83
2020/12/21 02:16:15;;;;;;;66.45;24.37;;;;;;;3.94;80.80;100359.78;1782638;80;21226;-83
2020/12/21 02:18:42;;;;;;;66.42;22.02;;;;;;;3.90;81.17;100360.52;1775529;80;21245;-83
2020/12/21 02:21:10;;;;;;;58.17;22.55;;;;;;;3.87;81.34;100365.62;1781155;78;21303;-83
2020/12/21 02:23:37;;;;;;;64.07;22.98;;;;;;;3.84;81.74;100366.42;1779623;80;21362;-81
2020/12/21 02:26:05;;;;;;;43.85;17.90;;;;;;;3.83;81.54;100361.23;1781683;80;21296;-81
2020/12/21 02:28:33;;;;;;;38.60;17.05;;;;;;;3.81;81.58;100355.19;1774191;79;21197;-84
2020/12/21 02:31:00;;;;;;;41.15;16.15;;;;;;;3.78;81.74;100354.29;1784272;80;21212;-83
2020/12/21 02:33:29;;;;;;;42.53;16.25;;;;;;;3.79;81.72;100366.30;1736724;80;21154;-83
2020/12/21 02:35:57;;;;;;;39.67;17.48;;;;;;;3.78;81.99;100358.14;1713370;81;21290;-82
2020/12/21 02:38:24;;;;;;;39.05;16.73;;;;;;;3.80;81.70;100367.19;1724956;81;21277;-81
2020/12/21 02:40:52;;;;;;;45.00;17.48;;;;;;;3.81;81.89;100365.05;1721281;82;21170;-83
2020/12/21 02:43:22;;;;;;;44.18;17.30;;;;;;;3.84;81.91;100366.42;1692622;82;21274;-83
2020/12/21 02:45:49;;;;;;;47.20;18.82;;;;;;;3.88;81.97;100369.91;1693555;84;21326;-83
2020/12/21 02:48:17;;;;;;;40.45;17.35;;;;;;;3.90;81.90;100361.80;1687939;85;21460;-84
2020/12/21 02:50:46;;;;;;;41.28;17.05;;;;;;;3.92;82.06;100355.88;1693731;80;21523;-83
2020/12/21 02:53:18;;;;;;;40.78;17.80;;;;;;;3.92;81.93;100364.00;1715909;81;21261;-82
2020/12/21 02:55:46;;;;;;;47.95;19.35;;;;;;;3.96;81.74;100363.26;1771915;77;21237;-83
2020/12/21 02:58:14;;;;;;;42.83;19.00;;;;;;;3.97;81.73;100365.84;1770443;78;21237;-84
2020/12/21 03:00:43;;;;;;;47.35;18.35;;;;;;;4.01;81.50;100360.77;1773730;77;21265;-83
2020/12/21 03:03:13;;;;;;;40.92;18.55;;;;;;;3.97;81.44;100358.12;1771176;79;21265;-83
2020/12/21 03:05:42;;;;;;;51.02;21.33;;;;;;;3.97;81.31;100359.83;1773926;81;21134;-83
2020/12/21 03:08:11;;;;;;;51.48;19.20;;;;;;;3.95;81.02;100356.36;1769944;81;21138;-83
2020/12/21 03:10:39;;;;;;;47.17;20.35;;;;;;;3.89;81.76;100360.95;1775076;81;21219;-83
2020/12/21 03:13:07;;;;;;;43.85;19.48;;;;;;;3.88;81.74;100352.80;1759261;81;21228;-83
2020/12/21 03:15:35;;;;;;;47.60;20.70;;;;;;;3.86;81.78;100353.57;1769660;80;21293;-83
2020/12/21 03:18:03;;;;;;;44.25;19.52;;;;;;;3.84;81.76;100357.81;1773863;78;21236;-83
2020/12/21 03:20:31;;;;;;;46.13;19.00;;;;;;;3.79;82.19;100358.58;1762190;81;21265;-83
2020/12/21 03:22:58;;;;;;;43.02;18.90;;;;;;;3.80;81.70;100363.34;1770326;80;21284;-81
2020/12/21 03:25:26;;;;;;;42.23;19.00;;;;;;;3.78;81.49;100365.00;1768222;81;21229;-83
2020/12/21 03:27:53;;;;;;;47.80;16.32;;;;;;;3.73;82.15;100370.02;1750757;81;21276;-82
2020/12/21 03:30:20;;;;;;;44.33;19.25;;;;;;;3.72;81.74;100367.02;1772766;81;21296;-83
2020/12/21 03:32:50;;;;;;;47.43;19.73;;;;;;;3.70;81.18;100369.08;1771562;78;21225;-82
2020/12/21 03:35:19;;;;;;;41.55;19.05;;;;;;;3.69;81.27;100356.64;1770949;81;21106;-81
2020/12/21 03:37:46;;;;;;;45.15;18.65;;;;;;;3.69;81.82;100359.64;1770513;78;21248;-84
2020/12/21 03:40:13;;;;;;;46.92;19.12;;;;;;;3.70;81.48;100366.50;1766358;81;21285;-83
2020/12/21 03:42:42;;;;;;;42.00;17.02;;;;;;;3.71;81.97;100361.40;1724105;80;21701;-83
2020/12/21 03:45:10;;;;;;;36.05;15.98;;;;;;;3.72;81.75;100352.86;1734166;80;21241;-83
2020/12/21 03:47:37;;;;;;;37.40;15.85;;;;;;;3.77;81.68;100354.25;1777626;77;21295;-83
2020/12/21 03:50:05;;;;;;;36.35;15.13;;;;;;;3.74;81.67;100353.77;1779762;79;21118;-84
2020/12/21 03:52:33;;;;;;;38.70;14.85;;;;;;;3.72;81.84;100344.26;1732328;80;21111;-83
2020/12/21 03:55:00;;;;;;;45.38;18.15;;;;;;;3.81;81.70;100364.19;1769057;79;21233;-82
2020/12/21 03:57:27;;;;;;;37.70;15.65;;;;;;;3.86;81.78;100358.72;1762610;80;21257;-83
2020/12/21 03:59:55;;;;;;;39.27;15.60;;;;;;;3.91;81.77;100358.41;1779697;79;21288;-83
2020/12/21 04:02:22;;;;;;;35.83;15.50;;;;;;;3.93;81.60;100359.31;1778259;77;21295;-81
2020/12/21 04:04:49;;;;;;;39.70;16.30;;;;;;;3.92;81.62;100356.27;1777571;79;21115;-82
2020/12/21 04:07:17;;;;;;;37.63;16.05;;;;;;;3.91;81.48;100363.56;1766452;77;21149;-82
2020/12/21 04:09:44;;;;;;;35.45;15.80;;;;;;;3.91;81.36;100359.27;1782891;80;21649;-82
2020/12/21 04:12:11;;;;;;;40.63;17.42;;;;;;;3.89;81.35;100356.23;1779982;77;21130;-83
2020/12/21 04:14:39;;;;;;;41.05;16.87;;;;;;;3.87;81.50;100365.19;1774209;79;21304;-83
2020/12/21 04:17:06;;;;;;;36.05;16.50;;;;;;;3.85;81.66;100363.42;1780388;79;21268;-83
2020/12/21 04:19:33;;;;;;;31.33;14.78;;;;;;;3.85;80.89;100359.56;1777991;79;21252;-82
2020/12/21 04:22:00;;;;;;;34.58;14.80;;;;;;;3.77;81.60;100356.39;1761596;80;21216;-83
2020/12/21 04:24:29;;;;;;;34.05;14.30;;;;;;;3.76;81.90;100358.53;1778219;78;22073;-83
2020/12/21 04:26:56;;;;;;;35.10;15.58;;;;;;;3.73;81.70;100350.73;1781264;80;21246;-82
2020/12/21 04:29:23;;;;;;;33.75;15.40;;;;;;;3.75;81.64;100352.06;1780008;81;21252;-83
2020/12/21 04:31:55;;;;;;;29.82;13.95;;;;;;;3.72;81.79;100354.16;1780590;77;21228;-83
2020/12/21 04:34:25;;;;;;;29.23;13.25;;;;;;;3.68;82.18;100349.77;1780016;79;21248;-83
2020/12/21 04:36:54;;;;;;;28.47;13.20;;;;;;;3.67;82.13;100357.02;1772380;77;21220;-83
2020/12/21 04:39:24;;;;;;;32.48;13.03;;;;;;;3.68;81.51;100346.31;1779427;79;21338;-83
2020/12/21 04:41:54;;;;;;;36.03;12.85;;;;;;;3.66;81.83;100346.69;1776701;79;21274;-84
2020/12/21 04:44:29;;;;;;;29.50;13.30;;;;;;;3.69;82.72;100349.34;1889857;75;22245;-86
2020/12/21 04:46:57;;;;;;;31.90;13.48;;;;;;;3.66;82.02;100348.87;1859567;76;21145;-86
2020/12/21 04:49:26;;;;;;;37.75;14.80;;;;;;;3.65;82.35;100348.41;1863458;77;21288;-81
2020/12/21 04:51:53;;;;;;;34.35;15.32;;;;;;;3.66;82.16;100351.44;1862388;77;21256;-82
2020/12/21 04:54:21;;;;;;;34.10;15.13;;;;;;;3.65;82.57;100350.97;1866617;76;21298;-83
2020/12/21 04:56:48;;;;;;;38.15;15.75;;;;;;;3.67;82.46;100356.16;1862193;76;21090;-83
2020/12/21 04:59:16;;;;;;;37.65;17.00;;;;;;;3.66;83.11;100354.02;1867117;76;21237;-83
2020/12/21 05:01:44;;;;;;;34.38;15.20;;;;;;;3.73;82.57;100346.02;1865769;75;21217;-83
2020/12/21 05:04:14;;;;;;;34.78;14.73;;;;;;;3.76;82.53;100349.53;1866458;77;21174;-83
2020/12/21 05:06:52;;;;;;;35.40;15.75;;;;;;;3.83;82.44;100348.38;1858818;75;21434;-83
2020/12/21 05:09:24;;;;;;;32.63;15.78;;;;;;;3.88;82.32;100344.18;1868704;75;21106;-83
2020/12/21 05:12:05;;;;;;;32.83;15.13;;;;;;;3.90;82.11;100348.94;1857101;76;21216;-82
2020/12/21 05:14:35;;;;;;;31.15;13.72;;;;;;;3.91;82.11;100346.84;1867635;75;21303;-82
2020/12/21 05:17:15;;;;;;;35.38;14.55;;;;;;;3.92;81.72;100346.88;1858044;76;21272;-83
2020/12/21 05:20:01;;;;;;;35.73;14.80;;;;;;;3.95;81.78;100347.35;1804421;78;22951;-88
2020/12/21 05:22:29;;;;;;;32.90;12.90;;;;;;;3.90;81.61;100350.23;1718399;80;21114;-84
2020/12/21 05:25:08;;;;;;;29.65;12.65;;;;;;;3.89;81.59;100355.80;1757469;79;21130;-82
2020/12/21 05:27:43;;;;;;;32.73;17.30;;;;;;;3.94;81.56;100348.20;1863703;75;28499;-88
2020/12/21 05:30:11;;;;;;;33.65;15.03;;;;;;;3.91;81.11;100357.12;1869354;76;21171;-88
2020/12/21 05:32:39;;;;;;;33.25;13.38;;;;;;;3.88;81.20;100351.91;1786900;79;21282;-82
2020/12/21 05:35:09;;;;;;;32.70;13.68;;;;;;;3.85;81.21;100351.42;1753832;80;21137;-83
2020/12/21 05:37:39;;;;;;;30.97;13.58;;;;;;;3.84;81.38;100356.53;1822336;77;21145;-83
2020/12/21 05:40:08;;;;;;;30.15;13.55;;;;;;;3.82;81.39;100358.20;1795421;79;21280;-83
2020/12/21 05:42:36;;;;;;;32.67;14.73;;;;;;;3.77;81.46;100351.25;1834281;78;21280;-82
2020/12/21 05:45:07;;;;;;;34.08;13.62;;;;;;;3.73;81.59;100354.59;1821468;78;21283;-82
2020/12/21 05:47:35;;;;;;;33.92;13.10;;;;;;;3.71;81.38;100357.54;1803958;79;21279;-83
2020/12/21 05:50:06;;;;;;;38.73;13.30;;;;;;;3.68;81.56;100360.45;1829173;78;21295;-83
2020/12/21 05:52:36;;;;;;;38.65;15.85;;;;;;;3.67;81.68;100359.59;1805513;79;21162;-81
2020/12/21 05:55:11;;;;;;;41.15;16.00;;;;;;;3.67;82.13;100356.16;1777305;78;21292;-82
2020/12/21 05:57:40;;;;;;;33.88;14.55;;;;;;;3.66;81.95;100357.88;1786305;80;21228;-82
2020/12/21 06:00:10;;;;;;;37.30;14.65;;;;;;;3.70;81.74;100358.78;1823503;78;21295;-82
2020/12/21 06:02:37;;;;;;;32.17;13.85;;;;;;;3.68;81.77;100363.92;1832025;78;21474;-87
2020/12/21 06:05:09;;;;;;;27.80;13.30;;;;;;;3.66;81.93;100363.02;1805716;79;21166;-83
2020/12/21 06:07:38;;;;;;;31.07;12.93;;;;;;;3.68;81.77;100369.06;1838868;78;21134;-83
2020/12/21 06:10:08;;;;;;;33.28;13.25;;;;;;;3.70;81.71;100360.97;1803930;77;21618;-84
2020/12/21 06:12:47;;;;;;;38.15;16.50;;;;;;;3.71;81.68;100363.11;1804868;79;21483;-84
2020/12/21 06:15:19;;;;;;;35.00;15.00;;;;;;;3.75;81.53;100370.92;1798700;79;21229;-83
2020/12/21 06:17:47;;;;;;;35.17;15.38;;;;;;;3.74;81.34;100371.77;1795474;78;21233;-83
2020/12/21 06:20:17;;;;;;;39.03;15.83;;;;;;;3.76;81.29;100376.93;1803607;78;21118;-82
2020/12/21 06:22:44;;;;;;;38.25;14.58;;;;;;;3.74;81.22;100373.45;1810704;78;21279;-83
2020/12/21 06:25:21;;;;;;;31.05;14.20;;;;;;;3.74;81.35;100373.06;1813285;78;21201;-84
2020/12/21 06:27:50;;;;;;;28.45;13.38;;;;;;;3.71;81.13;100372.11;1785512;78;21292;-84
2020/12/21 06:30:21;;;;;;;29.23;13.62;;;;;;;3.70;80.98;100367.79;1796600;79;21323;-83
2020/12/21 06:32:50;;;;;;;32.00;13.65;;;;;;;3.63;80.98;100373.22;1795225;78;21162;-84
2020/12/21 06:35:20;;;;;;;29.87;13.15;;;;;;;3.59;81.03;100374.84;1767961;80;21378;-82
2020/12/21 06:38:01;;;;;;;36.63;14.60;;;;;;;3.58;81.08;100377.37;1786218;80;21248;-83
2020/12/21 06:40:34;;;;;;;34.13;14.50;;;;;;;3.52;80.79;100380.69;1793878;77;21213;-83
2020/12/21 06:43:12;;;;;;;27.73;11.45;;;;;;;3.46;81.00;100375.41;1791166;79;21269;-83
2020/12/21 06:45:48;;;;;;;27.90;9.98;;;;;;;3.52;81.25;100378.52;1879206;74;23055;-89
2020/12/21 06:48:24;;;;;;;25.12;9.88;;;;;;;3.50;81.24;100381.47;1846563;77;21238;-85
2020/12/21 06:50:51;;;;;;;20.65;9.98;;;;;;;3.52;81.08;100387.52;1858206;76;21237;-82
2020/12/21 06:53:18;;;;;;;39.88;18.23;;;;;;;3.55;81.18;100388.89;1855973;75;21234;-83
2020/12/21 06:55:46;;;;;;;77.55;31.23;;;;;;;3.55;81.01;100388.46;1840730;77;21179;-84
2020/12/21 06:58:15;;;;;;;32.05;12.00;;;;;;;3.61;81.31;100387.74;1859696;76;21083;-84
2020/12/21 07:00:43;;;;;;;22.17;9.93;;;;;;;3.66;80.82;100388.73;1848503;75;21249;-89
2020/12/21 07:03:10;;;;;;;27.17;11.45;;;;;;;3.65;80.29;100395.98;1813492;78;21170;-88
2020/12/21 07:05:38;;;;;;;27.20;10.50;;;;;;;3.69;80.45;100393.94;1787598;77;22210;-88
2020/12/21 07:08:07;;;;;;;21.97;11.00;;;;;;;3.71;79.56;100400.41;1746980;81;21369;-88
2020/12/21 07:10:34;;;;;;;25.75;10.15;;;;;;;3.70;80.08;100393.12;1751495;81;21272;-84
2020/12/21 07:13:01;;;;;;;25.15;10.98;;;;;;;3.70;79.77;100401.22;1761705;81;21264;-84
2020/12/21 07:15:29;;;;;;;22.45;10.88;;;;;;;3.69;79.75;100397.80;1763456;81;21184;-84
2020/12/21 07:17:56;;;;;;;26.95;11.90;;;;;;;3.59;79.21;100399.70;1751686;81;21176;-84
2020/12/21 07:20:23;;;;;;;30.72;11.55;;;;;;;3.63;79.27;100404.08;1751377;81;21529;-83
2020/12/21 07:22:52;;;;;;;23.15;10.60;;;;;;;3.60;79.09;100393.70;1754454;81;21102;-84
2020/12/21 07:25:22;;;;;;;26.23;10.60;;;;;;;3.57;78.78;100398.37;1754481;81;21190;-84
2020/12/21 07:27:48;;;;;;;24.05;10.40;;;;;;;3.59;79.01;100398.41;1738401;81;21279;-84
2020/12/21 07:30:16;;;;;;;23.70;10.90;;;;;;;3.52;78.93;100397.41;1765402;81;21303;-84
2020/12/21 07:32:44;;;;;;;24.72;8.78;;;;;;;3.53;79.16;100400.84;1752438;81;21251;-84
2020/12/21 07:35:12;;;;;;;23.40;9.43;;;;;;;3.53;78.93;100407.27;1753248;81;21272;-85
2020/12/21 07:37:41;;;;;;;17.92;7.70;;;;;;;3.51;78.74;100406.36;1731171;81;21279;-83
2020/12/21 07:40:22;;;;;;;18.20;8.65;;;;;;;3.48;78.70;100409.73;1758017;81;21428;-83
2020/12/21 07:42:53;;;;;;;21.85;8.83;;;;;;;3.48;78.59;100411.41;1714160;81;21224;-82
2020/12/21 07:45:23;;;;;;;19.95;8.53;;;;;;;3.49;78.50;100414.45;1739144;81;21295;-83
2020/12/21 07:47:51;;;;;;;22.65;8.68;;;;;;;3.58;79.50;100420.70;1745815;81;21296;-83
2020/12/21 07:50:18;;;;;;;25.40;8.00;;;;;;;3.53;78.13;100413.69;1745632;81;21227;-83
2020/12/21 07:52:46;;;;;;;22.67;10.03;;;;;;;3.57;78.07;100424.50;1743021;81;21181;-84
2020/12/21 07:55:14;;;;;;;18.10;8.53;;;;;;;3.66;77.82;100423.45;1737168;81;21161;-82
2020/12/21 07:57:43;;;;;;;20.72;9.35;;;;;;;3.65;76.79;100428.55;1740035;81;21157;-84
2020/12/21 08:00:12;;;;;;;19.15;8.73;;;;;;;3.69;77.76;100426.09;1735902;81;21591;-83
2020/12/21 08:02:43;;;;;;;21.52;8.78;;;;;;;3.68;77.74;100421.79;1741921;81;21165;-82
2020/12/21 08:05:20;;;;;;;18.98;9.03;;;;;;;3.64;76.51;100421.27;1735233;81;21118;-81
2020/12/21 08:07:47;;;;;;;18.48;8.08;;;;;;;3.65;76.59;100427.27;1742723;81;21459;-83
2020/12/21 08:10:19;;;;;;;17.52;8.68;;;;;;;3.62;76.43;100425.89;1739392;81;21269;-82
2020/12/21 08:12:47;;;;;;;20.40;8.50;;;;;;;3.63;76.95;100427.65;1747136;81;21299;-82
2020/12/21 08:15:14;;;;;;;16.82;7.20;;;;;;;3.43;76.02;100408.73;1743509;81;21274;-82
2020/12/21 08:17:43;;;;;;;18.20;8.63;;;;;;;3.56;76.38;100433.03;1717514;81;21515;-83
2020/12/21 08:20:10;;;;;;;20.70;8.43;;;;;;;3.57;76.49;100433.08;1753494;81;21247;-83
2020/12/21 08:22:38;;;;;;;23.35;9.15;;;;;;;3.65;76.76;100424.27;1739769;81;21256;-83
2020/12/21 08:25:10;;;;;;;22.02;9.73;;;;;;;3.67;76.43;100424.31;1754318;81;21241;-84
2020/12/21 08:27:51;;;;;;;26.80;11.18;;;;;;;3.64;76.91;100426.80;1752117;81;21227;-84
2020/12/21 08:30:23;;;;;;;21.50;9.28;;;;;;;3.77;77.47;100418.12;1747325;81;21687;-83
2020/12/21 08:32:52;;;;;;;19.60;9.20;;;;;;;3.77;76.88;100420.70;1737162;81;21287;-82
2020/12/21 08:35:26;;;;;;;17.98;7.78;;;;;;;3.78;76.33;100421.59;1755488;81;21293;-84
2020/12/21 08:38:05;;;;;;;25.27;7.00;;;;;;;3.77;75.29;100416.84;1744213;81;21287;-83
2020/12/21 08:40:32;;;;;;;18.80;7.78;;;;;;;3.86;76.72;100418.78;1742920;81;21303;-83
2020/12/21 08:43:00;;;;;;;20.90;8.30;;;;;;;3.83;75.91;100425.12;1747545;81;21283;-83
2020/12/21 08:45:28;;;;;;;18.92;8.78;;;;;;;3.89;75.87;100425.69;1746690;81;21294;-81
2020/12/21 08:47:55;;;;;;;18.05;7.92;;;;;;;3.95;75.86;100418.11;1753566;81;21272;-84
2020/12/21 08:50:22;;;;;;;17.65;8.45;;;;;;;3.99;75.10;100415.63;1740641;80;21287;-88
2020/12/21 08:52:50;;;;;;;21.75;9.05;;;;;;;4.01;75.95;100413.10;1729117;81;21165;-87
2020/12/21 08:55:18;;;;;;;22.30;10.72;;;;;;;4.08;75.84;100416.28;1733453;82;21152;-87
2020/12/21 08:57:45;;;;;;;22.27;10.05;;;;;;;4.09;74.57;100416.71;1726980;82;21180;-91
2020/12/21 09:00:12;;;;;;;22.20;8.85;;;;;;;4.17;76.21;100412.60;1726055;81;21776;-87
2020/12/21 09:02:40;;;;;;;23.32;10.30;;;;;;;4.14;74.14;100407.41;1730741;82;21188;-88
2020/12/21 09:05:07;;;;;;;19.67;8.55;;;;;;;4.22;74.98;100408.86;1703647;83;21180;-83
2020/12/21 09:07:37;;;;;;;19.55;7.78;;;;;;;4.31;75.25;100405.17;1708132;83;21153;-81
2020/12/21 09:10:05;;;;;;;16.55;8.73;;;;;;;4.26;73.27;100413.63;1683749;85;21281;-84
2020/12/21 09:12:34;;;;;;;22.65;8.55;;;;;;;4.30;74.79;100404.74;1704517;84;21312;-83
2020/12/21 09:15:02;;;;;;;17.50;8.15;;;;;;;4.26;74.48;100409.77;1675040;85;21197;-83
2020/12/21 09:17:29;;;;;;;16.42;7.55;;;;;;;4.17;73.15;100404.02;1707761;83;21109;-84
2020/12/21 09:19:57;;;;;;;20.57;10.03;;;;;;;4.17;73.68;100404.88;1702926;82;21252;-83
2020/12/21 09:22:27;;;;;;;20.35;9.65;;;;;;;4.20;73.54;100407.96;1703190;83;21289;-83
2020/12/21 09:24:54;;;;;;;21.20;9.63;;;;;;;4.22;73.66;100403.71;1704421;82;21336;-83
2020/12/21 09:27:21;;;;;;;25.72;9.70;;;;;;;4.24;74.24;100406.30;1707882;83;21308;-81
2020/12/21 09:29:48;;;;;;;22.10;9.63;;;;;;;4.22;73.03;100407.58;1703019;82;21626;-82
2020/12/21 09:32:16;;;;;;;22.82;8.98;;;;;;;4.28;72.82;100402.98;1703927;83;21322;-82
2020/12/21 09:34:43;;;;;;;18.98;8.15;;;;;;;4.25;72.19;100396.46;1681608;85;21323;-83
2020/12/21 09:37:13;;;;;;;19.07;8.35;;;;;;;4.25;73.19;100396.03;1681093;85;21287;-83
2020/12/21 09:39:41;;;;;;;16.90;8.65;;;;;;;4.22;72.53;100392.52;1681439;85;21260;-83
2020/12/21 09:42:08;;;;;;;22.37;9.13;;;;;;;4.22;72.53;100400.24;1704593;82;21177;-83
2020/12/21 09:44:35;;;;;;;20.85;9.08;;;;;;;4.26;73.21;100395.22;1707755;84;21283;-81
2020/12/21 09:47:03;;;;;;;21.35;9.43;;;;;;;4.22;71.90;100391.23;1710393;84;21315;-83
2020/12/21 09:49:31;;;;;;;21.30;8.63;;;;;;;4.23;72.99;100399.42;1704099;84;21322;-84
2020/12/21 09:51:59;;;;;;;16.70;8.10;;;;;;;4.24;73.00;100394.31;1690471;84;21328;-82
2020/12/21 09:54:26;;;;;;;18.57;9.45;;;;;;;4.10;72.42;100360.95;1690069;84;21288;-81
2020/12/21 09:56:53;;;;;;;19.30;8.68;;;;;;;4.30;72.87;100392.30;1694557;84;21556;-82
2020/12/21 09:59:20;;;;;;;20.55;8.58;;;;;;;4.27;72.68;100390.92;1688345;84;21201;-82
2020/12/21 10:01:48;;;;;;;21.25;9.73;;;;;;;4.22;71.69;100386.98;1686828;84;21279;-82
2020/12/21 10:04:15;;;;;;;22.42;10.03;;;;;;;4.25;72.28;100391.31;1688155;84;21501;-83
2020/12/21 10:06:50;;;;;;;26.05;10.60;;;;;;;4.27;72.46;100394.36;1684849;84;21292;-84
2020/12/21 10:09:19;;;;;;;28.35;11.03;;;;;;;4.26;71.69;100393.93;1687736;84;21264;-83
2020/12/21 10:11:53;;;;;;;28.55;9.40;;;;;;;4.31;71.87;100391.02;1691322;84;21295;-82
2020/12/21 10:14:21;;;;;;;22.93;8.80;;;;;;;4.28;71.30;100392.25;1698292;84;21193;-84
2020/12/21 10:16:53;;;;;;;21.05;10.32;;;;;;;4.30;72.13;100388.01;1693110;82;21322;-84
2020/12/21 10:19:22;;;;;;;23.12;9.60;;;;;;;4.30;71.69;100391.01;1661640;85;21296;-82
2020/12/21 10:21:49;;;;;;;23.73;9.30;;;;;;;4.33;72.19;100380.75;1694616;84;21323;-83
2020/12/21 10:24:17;;;;;;;19.73;8.60;;;;;;;4.42;72.86;100379.67;1691476;84;21332;-82
2020/12/21 10:26:44;;;;;;;21.62;9.08;;;;;;;4.49;71.31;100380.22;1694385;84;21284;-83
2020/12/21 10:29:11;;;;;;;24.50;8.83;;;;;;;4.55;71.67;100377.77;1690849;84;21693;-84
2020/12/21 10:31:39;;;;;;;22.67;10.80;;;;;;;4.62;72.98;100371.05;1690057;83;21335;-83
2020/12/21 10:34:06;;;;;;;27.93;12.00;;;;;;;4.64;72.05;100371.09;1692940;84;21316;-83
2020/12/21 10:36:34;;;;;;;23.42;10.43;;;;;;;4.67;72.91;100367.27;1695806;84;21296;-83
2020/12/21 10:39:01;;;;;;;22.37;9.80;;;;;;;4.73;73.08;100371.24;1692184;84;21279;-83
2020/12/21 10:41:33;;;;;;;24.50;9.80;;;;;;;4.72;71.78;100372.09;1693483;84;21295;-84
2020/12/21 10:44:01;;;;;;;27.87;10.30;;;;;;;4.77;71.45;100376.90;1692441;84;21336;-84
2020/12/21 10:46:29;;;;;;;26.33;10.78;;;;;;;4.82;71.66;100375.72;1670124;84;21302;-84
2020/12/21 10:48:57;;;;;;;27.10;10.15;;;;;;;4.84;71.96;100372.75;1688845;84;21213;-82
2020/12/21 10:51:29;;;;;;;20.80;8.85;;;;;;;4.80;72.22;100370.95;1684579;84;21137;-84
2020/12/21 10:53:57;;;;;;;23.95;9.40;;;;;;;4.69;71.09;100367.73;1690687;82;21273;-83
2020/12/21 10:56:25;;;;;;;22.07;9.03;;;;;;;4.62;69.66;100367.61;1684703;84;21299;-83
2020/12/21 10:58:53;;;;;;;21.15;9.28;;;;;;;4.50;69.66;100349.78;1709026;84;21319;-83
2020/12/21 11:01:20;;;;;;;26.85;9.85;;;;;;;4.62;69.73;100360.75;1706451;82;21291;-82
2020/12/21 11:03:49;;;;;;;19.15;9.35;;;;;;;4.62;70.40;100366.33;1708861;82;21538;-82
2020/12/21 11:06:23;;;;;;;22.07;9.30;;;;;;;4.60;70.67;100366.72;1696221;84;21161;-83
2020/12/21 11:08:59;;;;;;;21.97;9.05;;;;;;;4.60;70.04;100362.86;1804182;77;22637;-88
2020/12/21 11:11:27;;;;;;;19.32;8.38;;;;;;;4.60;70.93;100366.72;1808341;78;21168;-87
2020/12/21 11:13:55;;;;;;;19.20;9.18;;;;;;;4.58;70.23;100368.83;1752105;81;21166;-82
2020/12/21 11:16:23;;;;;;;18.55;8.65;;;;;;;4.63;71.36;100361.61;1755953;81;21308;-82
2020/12/21 11:18:50;;;;;;;20.25;8.98;;;;;;;4.55;69.82;100362.74;1749377;81;21268;-82
2020/12/21 11:21:19;;;;;;;23.95;10.23;;;;;;;4.55;70.75;100355.87;1764581;81;21283;-82
2020/12/21 11:23:48;;;;;;;16.97;7.92;;;;;;;4.46;70.06;100349.28;1765539;81;21282;-83
2020/12/21 11:26:18;;;;;;;19.57;8.50;;;;;;;4.53;70.04;100358.84;1763592;81;21288;-81